Latest Weather Observations for Macquarie Island

IDT60801

Issued at 10:35 pm EST Wednesday 23 April 2014 (issued every 30 minutes, with the page automatically refreshed every 10 minutes)

About weather observations | Map of weather stations | Latest weather observations for TAS | Other Formats
Station Details ID: 300004 Name: MACQUARIE ISLAND Lat: -54.50 Lon: 158.94 Height: 6.0 m
Data from the previous 72 hours. | See also: Recent months at Macquarie Island
Date/Time
EST
Temp
°C
App
Temp
°C
Dew
Point
Rel
Hum
%
Delta-T
°C
Wind Press
QNH
hPa
Press
MSL
hPa
Rain
since 9 am
mm
Dir
 
Spd
km/h
Gust
km/h
Spd
kts
Gust
kts
23/10:30pm 5.5 -4.6 1.4 75 1.6 W 44 56 24 30 1001.5 - 1.6
23/10:00pm 5.6 -4.3 1.5 75 1.6 W 43 57 23 31 1001.2 - 1.6
23/09:30pm 5.5 -5.5 0.9 72 1.8 W 48 63 26 34 1000.9 - 1.6
23/09:18pm 5.6 -5.7 1.0 72 1.8 W 50 69 27 37 1000.7 - 1.6
23/09:00pm 5.6 -6.2 0.4 69 2.0 W 52 69 28 37 1000.3 1000.6 1.6
23/08:51pm 5.6 -5.8 0.6 70 1.9 W 50 69 27 37 1000.2 - 1.6
23/08:30pm 5.6 -7.1 0.8 71 1.9 W 57 70 31 38 999.8 - 1.6
23/08:26pm 5.7 -6.4 1.1 72 1.8 W 54 72 29 39 999.8 - 1.6
23/08:00pm 5.7 -7.7 0.9 71 1.9 W 61 76 33 41 999.3 - 1.6
23/07:49pm 5.6 -7.8 1.0 72 1.8 W 61 80 33 43 999.1 - 1.6
23/07:30pm 5.7 -8.1 0.9 71 1.9 W 63 76 34 41 998.7 - 1.6
23/07:05pm 5.6 -8.6 1.2 73 1.7 W 65 83 35 45 998.2 - 1.6
23/07:00pm 5.5 -9.1 0.9 72 1.8 W 67 83 36 45 998.1 - 1.6
23/06:41pm 5.5 -7.9 1.2 74 1.7 W 61 80 33 43 997.8 - 1.6
23/06:30pm 5.4 -8.8 1.0 73 1.7 W 65 82 35 44 997.4 - 1.6
23/06:02pm 5.4 -9.2 0.6 71 1.9 W 67 85 36 46 996.8 - 1.6
23/06:00pm 5.4 -9.6 0.4 70 1.9 W 69 85 37 46 996.6 996.9 1.6
23/05:30pm 5.4 -9.6 0.6 71 1.9 W 69 87 37 47 996.0 - 1.6
23/05:00pm 5.3 -10.8 -0.1 68 2.1 W 74 95 40 51 995.4 - 1.6
23/04:30pm 5.2 -10.4 0.4 71 1.8 W 72 93 39 50 994.4 - 1.6
23/04:07pm 5.2 -10.9 -0.2 68 2.0 W 74 93 40 50 994.0 - 1.6
23/04:00pm 5.2 -10.8 0.4 71 1.8 W 74 91 40 49 993.7 - 1.6
23/03:30pm 5.3 -9.3 0.9 73 1.7 W 67 93 36 50 993.0 - 1.6
23/03:00pm 5.4 -9.8 0.8 72 1.8 W 70 93 38 50 992.3 992.6 1.6
23/02:30pm 5.8 -9.3 1.5 74 1.7 WNW 70 100 38 54 991.6 - 1.6
23/02:00pm 5.8 -9.2 1.9 76 1.6 W 70 91 38 49 990.7 - 1.6
23/01:30pm 5.6 -10.9 1.7 76 1.6 WNW 78 102 42 55 990.2 - 1.6
23/01:00pm 5.3 -11.3 1.4 76 1.5 WNW 78 98 42 53 989.5 - 1.6
23/12:30pm 5.1 -10.5 2.5 83 1.1 WNW 74 98 40 53 989.1 - 1.6
23/12:21pm 4.9 -11.1 2.8 86 0.9 WNW 76 96 41 52 988.8 - 1.6
23/12:17pm 4.7 -12.1 2.7 87 0.8 WNW 80 93 43 50 988.6 - 1.6
23/12:05pm 4.6 -7.7 3.3 91 0.5 W 57 78 31 42 989.1 - 1.0
23/12:00pm 4.4 -7.3 3.1 91 0.5 W 54 67 29 36 989.1 989.4 1.0
23/11:30am 5.1 -10.5 2.8 85 0.9 W 74 95 40 51 988.5 - 0.0
23/11:00am 5.1 -10.9 2.5 83 1.1 W 76 106 41 57 987.5 - 0.0
23/10:54am 5.2 -10.4 2.9 85 1.0 W 74 106 40 57 987.4 - 0.0
23/10:30am 5.2 -9.4 3.1 86 0.9 WNW 69 87 37 47 986.7 - 0.0
23/10:00am 5.5 -9.2 3.3 86 0.9 WNW 70 91 38 49 986.1 - 0.0
23/09:30am 5.5 -9.5 3.8 89 0.7 WNW 72 93 39 50 985.1 - 0.0
23/09:00am 5.5 -9.7 3.0 84 1.0 WNW 72 91 39 49 984.7 985.0 4.6
23/08:30am 5.6 -9.5 3.4 86 0.9 WNW 72 96 39 52 984.4 - 4.6
23/08:17am 5.7 -9.0 3.4 85 1.0 WNW 70 91 38 49 984.1 - 4.6
23/08:00am 5.7 -9.0 3.5 86 0.9 WNW 70 87 38 47 983.8 - 4.6
23/07:51am 5.7 -8.4 3.9 88 0.8 WNW 67 85 36 46 983.7 - 4.6
23/07:30am 5.9 -8.4 4.4 90 0.6 NW 69 83 37 45 983.4 - 4.6
23/07:00am 5.9 -8.6 3.7 86 0.9 NW 69 87 37 47 982.9 - 4.6
23/06:30am 6.0 -7.7 3.8 86 0.9 NW 65 83 35 45 982.4 - 4.6
23/06:10am 6.5 -7.1 4.2 85 1.0 NW 65 83 35 45 982.0 - 4.6
23/06:00am 6.6 -6.2 4.4 86 1.0 NW 61 74 33 40 982.0 982.3 4.6
23/05:30am 6.7 -7.2 4.5 86 1.0 NW 67 85 36 46 981.5 - 4.6
23/05:04am 6.7 -5.7 4.4 85 1.0 NW 59 80 32 43 981.0 - 4.6
23/05:00am 6.8 -5.2 4.8 87 0.9 NW 57 72 31 39 981.0 - 4.6
23/04:36am 7.0 -4.3 5.2 88 0.8 NW 54 74 29 40 980.9 - 4.6
23/04:30am 7.0 -4.3 5.2 88 0.8 NW 54 70 29 38 980.8 - 4.6
23/04:00am 7.1 -3.4 5.6 90 0.7 NW 50 69 27 37 980.8 - 4.6
23/03:39am 7.3 -2.3 6.1 92 0.5 NNW 46 69 25 37 980.9 - 4.6
23/03:30am 7.3 -3.1 6.2 93 0.5 NNW 50 59 27 32 980.9 - 4.6
23/03:00am 7.6 -1.3 7.0 96 0.3 N 43 56 23 30 980.9 981.2 4.6
23/02:30am 8.0 0.0 7.4 96 0.3 N 39 57 21 31 981.7 - 4.4
23/02:00am 7.3 2.0 6.6 95 0.3 N 24 46 13 25 982.6 - 4.2
23/01:46am 7.1 2.5 6.4 95 0.3 SE 20 46 11 25 983.3 - 4.2
23/01:30am 6.9 -1.8 6.0 94 0.4 E 41 67 22 36 984.1 - 4.0
23/01:00am 6.6 -3.1 5.7 94 0.4 E 46 69 25 37 985.6 - 3.8
23/12:30am 6.5 -3.3 5.5 93 0.4 E 46 74 25 40 987.2 - 3.4
23/12:00am 6.3 -3.0 4.9 91 0.6 E 43 85 23 46 988.9 989.2 3.2
 
Date/Time
EST
Temp
°C
App
Temp
°C
Dew
Point
Rel
Hum
%
Delta-T
°C
Wind Press
QNH
hPa
Press
MSL
hPa
Rain
since 9 am
mm
Dir
 
Spd
km/h
Gust
km/h
Spd
kts
Gust
kts
22/11:51pm 6.4 -3.8 5.0 91 0.6 E 48 85 26 46 989.5 - 3.0
22/11:30pm 6.7 -2.2 5.2 90 0.7 E 41 61 22 33 990.5 - 2.6
22/11:00pm 6.9 -0.8 5.5 91 0.6 E 35 61 19 33 991.8 - 2.0
22/10:30pm 6.9 -1.2 5.4 90 0.7 E 37 65 20 35 993.1 - 1.2
22/10:00pm 7.0 0.7 5.5 90 0.7 E 28 50 15 27 994.3 - 0.2
22/09:30pm 7.2 1.2 5.2 87 0.9 E 26 50 14 27 995.6 - 0.0
22/09:00pm 7.1 1.9 5.3 88 0.8 E 22 43 12 23 996.6 996.9 0.0
22/08:30pm 7.0 2.3 5.2 88 0.8 NNW 19 30 10 16 997.7 - 0.0
22/08:00pm 7.1 3.5 5.1 87 0.9 NNE 13 28 7 15 998.5 - 0.0
22/07:30pm 7.0 3.1 5.2 88 0.8 NE 15 26 8 14 999.2 - 0.0
22/07:00pm 7.0 2.1 5.3 89 0.8 N 20 35 11 19 1000.0 - 0.0
22/06:30pm 7.0 1.4 5.5 90 0.7 N 24 43 13 23 1000.7 - 0.0
22/06:00pm 6.9 3.0 5.4 90 0.7 N 15 28 8 15 1001.5 1001.8 0.0
22/05:30pm 6.8 1.9 5.0 88 0.8 N 20 39 11 21 1002.1 - 0.0
22/05:00pm 6.8 1.9 5.0 88 0.8 N 20 33 11 18 1002.6 - 0.0
22/04:30pm 6.8 1.5 4.8 87 0.9 NNE 22 30 12 16 1003.1 - 0.0
22/04:00pm 6.8 1.2 5.3 90 0.7 N 24 28 13 15 1003.7 - 0.0
22/03:30pm 7.0 2.4 5.6 91 0.6 N 19 20 10 11 1004.1 - 0.0
22/03:00pm 7.3 2.5 5.6 89 0.8 N 20 24 11 13 1004.6 1004.9 0.0
22/02:30pm 7.5 2.9 5.5 87 0.9 NNW 19 22 10 12 1004.9 - 0.0
22/02:00pm 7.9 3.1 5.7 86 1.0 NNW 20 22 11 12 1005.3 - 0.0
22/01:30pm 7.9 2.4 5.9 87 0.9 NNW 24 26 13 14 1005.7 - 0.0
22/01:00pm 8.0 2.5 6.0 87 0.9 NNW 24 26 13 14 1005.8 - 0.0
22/12:30pm 8.0 2.9 6.0 87 0.9 NNW 22 26 12 14 1006.0 - 0.0
22/12:00pm 8.1 3.0 6.1 87 0.9 NW 22 26 12 14 1006.2 1006.5 0.0
22/11:30am 7.6 2.1 5.9 89 0.8 NNW 24 28 13 15 1006.4 - 0.0
22/11:00am 7.5 2.8 6.0 90 0.7 NW 20 26 11 14 1006.7 - 0.0
22/10:30am 7.4 1.9 5.7 89 0.8 NW 24 28 13 15 1006.9 - 0.0
22/10:00am 7.2 0.9 5.7 90 0.7 NW 28 32 15 17 1006.8 - 0.0
22/09:30am 7.4 1.1 5.7 89 0.8 NW 28 32 15 17 1007.0 - 0.0
22/09:00am 6.9 -0.2 5.4 90 0.7 NW 32 33 17 18 1007.0 1007.3 3.2
22/08:30am 6.4 0.3 4.9 90 0.7 WNW 26 30 14 16 1007.0 - 3.2
22/08:00am 6.3 -0.2 4.9 91 0.6 WNW 28 32 15 17 1007.0 - 3.2
22/07:30am 6.4 0.0 5.0 91 0.6 WNW 28 33 15 18 1007.0 - 3.2
22/07:00am 6.3 -0.2 4.6 89 0.7 WNW 28 35 15 19 1007.1 - 3.2
22/06:30am 6.1 -1.4 4.4 89 0.7 WNW 33 39 18 21 1006.9 - 3.2
22/06:00am 6.0 -1.5 4.6 91 0.6 WNW 33 41 18 22 1006.5 1006.8 3.2
22/05:30am 6.2 -1.3 4.5 89 0.7 WNW 33 41 18 22 1006.2 - 3.2
22/05:00am 6.1 -1.2 4.4 89 0.7 WNW 32 37 17 20 1005.9 - 3.2
22/04:30am 5.7 -1.4 3.7 87 0.8 W 30 43 16 23 1005.8 - 2.8
22/04:00am 5.8 -1.8 4.0 88 0.8 W 33 41 18 22 1005.4 - 2.8
22/03:30am 6.1 -1.5 2.7 79 1.4 W 32 43 17 23 1005.2 - 2.8
22/03:14am 6.2 -1.4 2.7 78 1.4 W 32 50 17 27 1004.9 - 2.8
22/03:00am 6.2 -2.9 1.9 74 1.7 W 39 52 21 28 1004.7 1005.0 2.8
22/02:30am 5.8 -3.9 2.6 80 1.3 W 43 54 23 29 1004.6 - 2.8
22/02:03am 5.5 -4.5 2.2 79 1.3 W 44 63 24 34 1004.2 - 2.8
22/02:00am 5.4 -5.0 1.9 78 1.4 W 46 63 25 34 1004.4 - 2.8
22/01:30am 5.4 -4.9 2.8 83 1.1 W 46 59 25 32 1004.1 - 2.8
22/01:00am 5.2 -5.0 3.2 87 0.8 W 46 59 25 32 1003.5 - 2.8
22/12:30am 5.3 -5.0 2.5 82 1.1 W 46 65 25 35 1002.8 - 2.6
22/12:00am 5.0 -6.1 2.7 85 0.9 W 50 76 27 41 1002.8 1003.1 2.6
 
Date/Time
EST
Temp
°C
App
Temp
°C
Dew
Point
Rel
Hum
%
Delta-T
°C
Wind Press
QNH
hPa
Press
MSL
hPa
Rain
since 9 am
mm
Dir
 
Spd
km/h
Gust
km/h
Spd
kts
Gust
kts
21/11:52pm 5.1 -5.9 3.0 86 0.9 W 50 69 27 37 1002.7 - 2.6
21/11:30pm 4.8 -7.4 2.8 87 0.8 W 56 69 30 37 1002.5 - 2.6
21/11:00pm 5.3 -6.8 3.0 85 0.9 W 56 70 30 38 1001.8 - 2.2
21/10:33pm 5.4 -6.1 2.1 79 1.3 W 52 70 28 38 1001.6 - 2.2
21/10:30pm 5.5 -6.4 2.2 79 1.3 W 54 70 29 38 1001.7 - 2.2
21/10:00pm 5.2 -6.7 2.4 82 1.1 W 54 69 29 37 1001.2 - 2.2
21/09:30pm 5.4 -7.5 1.9 78 1.4 W 59 80 32 43 1000.8 - 2.2
21/09:24pm 5.3 -8.0 1.6 77 1.5 W 61 80 33 43 1000.7 - 2.2
21/09:00pm 5.2 -8.6 1.3 76 1.5 W 63 78 34 42 1000.2 1000.5 2.2
21/08:30pm 5.1 -8.6 1.8 79 1.3 W 63 83 34 45 999.9 - 2.2
21/08:07pm 4.6 -9.1 1.5 80 1.2 W 63 83 34 45 999.5 - 2.2
21/08:00pm 4.7 -9.7 1.7 81 1.2 W 67 82 36 44 999.4 - 2.2
21/07:30pm 4.7 -7.7 1.7 81 1.2 W 56 74 30 40 998.7 - 2.2
21/07:00pm 4.9 -8.5 1.4 78 1.4 W 61 82 33 44 998.1 - 2.0
21/06:30pm 5.4 -8.5 0.6 71 1.9 W 63 85 34 46 997.8 - 2.0
21/06:10pm 5.2 -10.5 0.0 69 2.0 W 72 91 39 49 997.3 - 2.0
21/06:00pm 5.3 -11.6 -0.9 64 2.3 W 78 93 42 50 997.0 997.3 2.0
21/05:33pm 5.1 -10.0 -0.1 69 2.0 W 69 87 37 47 996.4 - 2.0
21/05:30pm 5.1 -10.3 -0.7 66 2.2 W 70 87 38 47 996.7 - 2.0
21/05:00pm 4.9 -10.4 -0.3 69 2.0 W 70 89 38 48 996.1 - 2.0
21/04:30pm 4.5 -9.7 1.0 78 1.4 W 65 89 35 48 995.4 - 2.0
21/04:26pm 4.5 -10.7 0.5 75 1.5 W 70 89 38 48 995.2 - 2.0
21/04:24pm 4.5 -11.5 0.6 76 1.5 W 74 89 40 48 995.1 - 2.0
21/04:06pm 4.9 -7.0 2.1 82 1.1 W 54 72 29 39 994.9 - 2.0
21/04:01pm 4.6 -11.8 0.4 74 1.6 W 76 95 41 51 995.0 - 2.0
21/04:00pm 4.6 -12.1 0.6 75 1.5 W 78 95 42 51 995.0 - 2.0
21/03:59pm 4.5 -13.0 0.3 74 1.6 W 82 95 44 51 994.9 - 2.0
21/03:38pm 4.5 -8.3 2.2 85 0.9 W 59 80 32 43 994.6 - 2.0
21/03:30pm 4.8 -8.4 2.3 84 1.0 W 61 76 33 41 994.2 - 2.0
21/03:17pm 4.7 -7.7 2.6 86 0.8 WNW 57 76 31 41 994.2 - 2.0
21/03:10pm 4.7 -8.1 2.4 85 0.9 WNW 59 76 32 41 993.9 - 2.0
21/03:01pm 4.5 -8.9 1.2 79 1.3 W 61 80 33 43 994.3 - 2.0
21/03:00pm 4.5 -9.2 1.4 80 1.2 W 63 80 34 43 994.3 994.6 2.0
21/02:30pm 4.9 -8.5 1.4 78 1.4 W 61 82 33 44 993.4 - 2.0
21/02:00pm 4.0 -9.2 2.2 88 0.7 W 61 82 33 44 993.5 - 1.6
21/01:30pm 3.9 -10.1 2.1 88 0.7 W 65 78 35 42 993.0 - 1.2
21/01:00pm 4.3 -9.0 2.0 85 0.9 W 61 82 33 44 992.5 - 0.8
21/12:30pm 4.5 -7.8 3.0 90 0.6 W 57 82 31 44 992.0 - 0.6
21/12:25pm 4.2 -8.7 2.1 86 0.8 W 59 82 32 44 991.7 - 0.6
21/12:00pm 4.7 -8.2 1.7 81 1.2 W 59 74 32 40 991.6 991.9 0.2
21/11:30am 4.4 -9.3 1.8 83 1.0 W 63 78 34 42 991.3 - 0.2
21/11:22am 4.6 -9.9 1.1 78 1.4 W 67 85 36 46 991.3 - 0.2
21/11:00am 5.2 -9.1 2.4 82 1.1 W 67 83 36 45 990.4 - 0.2
21/10:31am 5.0 -8.1 2.9 86 0.9 W 61 80 33 43 989.6 - 0.2
21/10:30am 5.1 -8.4 3.0 86 0.9 W 63 80 34 43 989.5 - 0.2
21/10:19am 5.1 -8.8 2.6 84 1.0 W 65 83 35 45 989.1 - 0.2
21/10:00am 5.5 -7.9 3.5 87 0.8 W 63 72 34 39 988.4 - 0.0
21/09:59am 5.5 -7.5 3.5 87 0.8 W 61 72 33 39 988.5 - 0.0
21/09:43am 6.0 -3.0 4.6 91 0.6 WNW 41 59 22 32 988.2 - 0.0
21/09:30am 6.0 -3.1 4.0 87 0.8 NW 41 50 22 27 988.2 - 0.0
21/09:00am 5.4 -2.6 3.9 90 0.6 WNW 35 41 19 22 988.2 988.5 1.8
21/08:30am 5.6 -0.3 4.1 90 0.6 WNW 24 33 13 18 988.1 - 1.8
21/08:00am 6.3 1.2 4.3 87 0.9 WNW 20 26 11 14 988.1 - 1.2
21/07:30am 6.8 0.9 5.6 92 0.5 NNW 26 35 14 19 988.0 - 1.2
21/07:00am 6.6 -0.1 5.4 92 0.5 NNW 30 33 16 18 987.9 - 1.2
21/06:30am 6.4 -0.7 5.4 93 0.4 NNW 32 35 17 19 987.7 - 1.2
21/06:00am 6.2 -0.6 5.2 93 0.4 NNW 30 35 16 19 987.6 987.9 1.2
21/05:30am 6.1 -0.7 5.2 94 0.4 NNW 30 35 16 19 987.6 - 1.2
21/05:00am 5.8 -1.6 4.9 94 0.4 WNW 33 39 18 21 987.5 - 1.2
21/04:30am 5.7 -3.6 4.8 94 0.4 WNW 43 48 23 26 987.3 - 1.2
21/04:00am 5.9 -3.5 5.2 95 0.3 NW 44 56 24 30 987.1 - 1.0
21/03:58am 6.0 -3.8 5.3 95 0.3 NW 46 56 25 30 987.1 - 1.0
21/03:30am 6.3 -2.9 5.6 95 0.3 N 43 50 23 27 987.6 - 0.8
21/03:06am 6.4 -2.0 5.4 93 0.4 N 39 59 21 32 987.9 - 0.2
21/03:00am 6.4 -2.1 5.2 92 0.5 N 39 50 21 27 988.1 988.4 0.2
21/02:30am 6.7 -1.1 4.7 87 0.9 N 35 44 19 24 988.6 - 0.0
21/02:00am 6.4 -1.0 4.1 85 1.0 N 32 43 17 23 989.0 - 0.0
21/01:30am 6.2 0.3 3.9 85 1.0 N 24 32 13 17 989.9 - 0.0
21/01:00am 6.0 -0.3 3.5 84 1.0 N 26 32 14 17 990.4 - 0.0
21/12:30am 5.8 -0.3 3.0 82 1.2 N 24 30 13 16 990.8 - 0.0
21/12:00am 5.9 -1.0 2.7 80 1.3 N 28 32 15 17 991.3 991.6 0.0
 
Date/Time
EST
Temp
°C
App
Temp
°C
Dew
Point
Rel
Hum
%
Delta-T
°C
Wind Press
QNH
hPa
Press
MSL
hPa
Rain
since 9 am
mm
Dir
 
Spd
km/h
Gust
km/h
Spd
kts
Gust
kts
20/11:30pm 5.7 -1.9 2.7 81 1.2 NNW 32 35 17 19 991.8 - 0.0
20/11:00pm 5.5 -1.7 3.0 84 1.0 N 30 33 16 18 992.1 - 0.0

Other Formats:

Comma delimited format used in spreadsheet applications
http://www.bom.gov.au/fwo/IDT60801/IDT60801.94998.axf

JavaScript Object Notation format (JSON) in row-major order
http://www.bom.gov.au/fwo/IDT60801/IDT60801.94998.json